Time;durP1;ratioP1;P1;durP2;ratioP2;P2;SDS_P1;SDS_P2;PMS_P1;PMS_P2;Temp;Humidity;BMP_temperature;BMP_pressure;BME280_temperature;BME280_humidity;BME280_pressure;Samples;Min_cycle;Max_cycle;Signal;HPM_P1;HPM_P2
2023/03/04 00:01:00;;;;;;;;;;;4.00;99.90;;;;;;5069221;28;20402;-90
2023/03/04 00:03:36;;;;;;;;;;;3.60;99.90;;;;;;5088919;28;19931;-91
2023/03/04 00:06:09;;;;;;;;;;;4.40;99.90;;;;;;5084497;28;19925;-90
2023/03/04 00:08:44;;;;;;;;;;;6.50;99.90;;;;;;5076136;28;19980;-90
2023/03/04 00:11:15;;;;;;;;;;;5.60;99.90;;;;;;5106385;28;19935;-91
2023/03/04 00:13:45;;;;;;;;;;;5.10;99.90;;;;;;5113940;28;19920;-91
2023/03/04 00:16:31;;;;;;;;;;;5.10;99.90;;;;;;5080548;28;19932;-90
2023/03/04 00:18:59;;;;;;;;;;;5.30;99.90;;;;;;5112789;28;19929;-92
2023/03/04 00:21:27;;;;;;;;;;;5.10;99.90;;;;;;5132362;28;19918;-90
2023/03/04 00:23:53;;;;;;;;;;;5.80;99.90;;;;;;5082478;28;19920;-90
2023/03/04 00:26:26;;;;;;;;;;;5.30;99.90;;;;;;5082798;28;19988;-89
2023/03/04 00:28:54;;;;;;;;;;;5.40;99.90;;;;;;5081857;28;19944;-91
2023/03/04 00:31:22;;;;;;;;;;;5.10;99.90;;;;;;5082237;28;19928;-90
2023/03/04 00:33:48;;;;;;;;;;;5.90;99.90;;;;;;5112558;28;19925;-90
2023/03/04 00:36:26;;;;;;;;;;;;;;;;;;;;;
2023/03/04 00:38:55;;;;;;;;;;;5.80;99.90;;;;;;5104481;28;20311;-91
2023/03/04 00:41:26;;;;;;;;;;;5.30;99.90;;;;;;5057237;28;19925;-90
2023/03/04 00:44:05;;;;;;;;;;;5.70;99.90;;;;;;5041910;28;19924;-90
2023/03/04 00:46:39;;;;;;;;;;;5.20;99.90;;;;;;5057804;28;19940;-91
2023/03/04 00:49:13;;;;;;;;;;;3.50;99.90;;;;;;5072850;28;20041;-91
2023/03/04 00:51:44;;;;;;;;;;;5.80;99.90;;;;;;5054498;28;20269;-91
2023/03/04 00:54:20;;;;;;;;;;;;;;;;;;;;;
2023/03/04 00:56:46;;;;;;;;;;;5.20;99.90;;;;;;5079442;28;19924;-91
2023/03/04 00:59:12;;;;;;;;;;;5.10;99.90;;;;;;5057295;28;19946;-90
2023/03/04 01:01:40;;;;;;;;;;;5.60;99.90;;;;;;5074296;28;19930;-89
2023/03/04 01:04:09;;;;;;;;;;;5.40;99.90;;;;;;5088264;28;19924;-91
2023/03/04 01:06:37;;;;;;;;;;;5.40;99.90;;;;;;5057275;28;19999;-90
2023/03/04 01:09:05;;;;;;;;;;;5.30;99.90;;;;;;5085548;28;19932;-90
2023/03/04 01:11:41;;;;;;;;;;;;;;;;;;;;;
2023/03/04 01:14:14;;;;;;;;;;;5.20;99.90;;;;;;5065365;28;19924;-90
2023/03/04 01:16:42;;;;;;;;;;;5.70;99.90;;;;;;5069429;28;19971;-90
2023/03/04 01:19:29;;;;;;;;;;;;;;;;;;;;;
2023/03/04 01:21:57;;;;;;;;;;;5.30;99.90;;;;;;5079672;28;20014;-90
2023/03/04 01:24:33;;;;;;;;;;;5.30;99.90;;;;;;5072874;28;19968;-91
2023/03/04 01:27:01;;;;;;;;;;;5.10;99.90;;;;;;5056925;28;19928;-91
2023/03/04 01:29:50;;;;;;;;;;;;;;;;;;;;;
2023/03/04 01:32:21;;;;;;;;;;;5.10;99.90;;;;;;5059072;28;19925;-91
2023/03/04 01:34:47;;;;;;;;;;;5.20;99.90;;;;;;5073491;28;19939;-91
2023/03/04 01:40:06;;;;;;;;;;;5.10;99.90;;;;;;5049472;28;19924;-90
2023/03/04 01:42:37;;;;;;;;;;;3.30;99.90;;;;;;5070327;28;19925;-90
2023/03/04 01:45:14;;;;;;;;;;;;;;;;;;;;;
2023/03/04 01:47:47;;;;;;;;;;;4.00;99.90;;;;;;5070381;28;19931;-91
2023/03/04 01:50:25;;;;;;;;;;;5.00;99.90;;;;;;5079007;28;19924;-90
2023/03/04 01:53:01;;;;;;;;;;;5.80;99.90;;;;;;5057006;28;19998;-90
2023/03/04 01:55:30;;;;;;;;;;;5.50;99.90;;;;;;5089930;28;19924;-91
2023/03/04 01:58:05;;;;;;;;;;;6.40;99.90;;;;;;5089154;28;19924;-90
2023/03/04 02:00:36;;;;;;;;;;;3.40;99.90;;;;;;5088972;28;20329;-90
2023/03/04 02:03:12;;;;;;;;;;;5.30;99.90;;;;;;5106742;28;19924;-92
2023/03/04 02:05:56;;;;;;;;;;;3.00;99.90;;;;;;5056491;28;19982;-90
2023/03/04 02:08:26;;;;;;;;;;;5.20;99.90;;;;;;5053599;28;19947;-90
2023/03/04 02:10:55;;;;;;;;;;;5.60;99.90;;;;;;5086874;28;19974;-90
2023/03/04 02:13:23;;;;;;;;;;;5.00;99.90;;;;;;5056548;28;19932;-90
2023/03/04 02:15:54;;;;;;;;;;;5.80;99.90;;;;;;5054675;28;19929;-90
2023/03/04 02:18:28;;;;;;;;;;;4.90;99.90;;;;;;5055847;28;20359;-90
2023/03/04 02:21:26;;;;;;;;;;;;;;;;;;;;;
2023/03/04 02:24:01;;;;;;;;;;;4.80;99.90;;;;;;5068719;28;19924;-91
2023/03/04 02:26:30;;;;;;;;;;;4.90;99.90;;;;;;5078601;28;20007;-90
2023/03/04 02:28:59;;;;;;;;;;;5.10;99.90;;;;;;5052189;28;19925;-90
2023/03/04 02:31:30;;;;;;;;;;;7.30;99.90;;;;;;5088470;28;19951;-90
2023/03/04 02:34:08;;;;;;;;;;;5.20;99.90;;;;;;5065331;28;19924;-90
2023/03/04 02:36:37;;;;;;;;;;;6.30;99.90;;;;;;5096545;28;20372;-91
2023/03/04 02:39:06;;;;;;;;;;;5.20;99.90;;;;;;5051644;28;20284;-90
2023/03/04 02:41:31;;;;;;;;;;;4.70;99.90;;;;;;5055661;28;19959;-91
2023/03/04 02:43:57;;;;;;;;;;;3.60;99.90;;;;;;5055539;28;19928;-90
2023/03/04 02:46:33;;;;;;;;;;;8.00;99.90;;;;;;5071790;28;19956;-90
2023/03/04 02:49:01;;;;;;;;;;;5.00;99.90;;;;;;5068387;28;20430;-91
2023/03/04 02:51:30;;;;;;;;;;;4.70;99.90;;;;;;5049125;28;19928;-90
2023/03/04 02:54:05;;;;;;;;;;;5.40;99.90;;;;;;5051853;28;20313;-90
2023/03/04 02:56:39;;;;;;;;;;;4.90;99.90;;;;;;5048600;28;19932;-90
2023/03/04 02:59:33;;;;;;;;;;;5.20;99.90;;;;;;5068802;28;19973;-91
2023/03/04 03:02:02;;;;;;;;;;;4.90;99.90;;;;;;5079861;28;19929;-90
2023/03/04 03:04:30;;;;;;;;;;;4.80;99.90;;;;;;5087027;28;19936;-91
2023/03/04 03:07:13;;;;;;;;;;;5.20;99.90;;;;;;5072123;28;20325;-94
2023/03/04 03:09:48;;;;;;;;;;;5.30;99.90;;;;;;5055283;28;20011;-90
2023/03/04 03:12:16;;;;;;;;;;;6.20;99.90;;;;;;5086230;28;19934;-90
2023/03/04 03:14:44;;;;;;;;;;;4.80;99.90;;;;;;5067341;28;19929;-91
2023/03/04 03:17:14;;;;;;;;;;;4.70;99.90;;;;;;5053358;28;19925;-89
2023/03/04 03:20:02;;;;;;;;;;;5.30;99.90;;;;;;5056438;28;19936;-90
2023/03/04 03:22:46;;;;;;;;;;;3.50;99.90;;;;;;5055863;28;19925;-90
2023/03/04 03:25:13;;;;;;;;;;;5.30;99.90;;;;;;5088096;28;20432;-90
2023/03/04 03:27:44;;;;;;;;;;;6.10;99.90;;;;;;5071354;28;19925;-90
2023/03/04 03:30:14;;;;;;;;;;;2.50;99.90;;;;;;5036832;28;19924;-90
2023/03/04 03:32:48;;;;;;;;;;;5.10;99.90;;;;;;5068207;28;19925;-89
2023/03/04 03:35:21;;;;;;;;;;;5.00;99.90;;;;;;5046945;28;19944;-91
2023/03/04 03:37:48;;;;;;;;;;;5.00;99.90;;;;;;5056145;28;20261;-90
2023/03/04 03:40:16;;;;;;;;;;;3.20;99.90;;;;;;5045895;28;19931;-90
2023/03/04 03:42:41;;;;;;;;;;;4.60;99.90;;;;;;5082026;28;19925;-90
2023/03/04 03:45:10;;;;;;;;;;;5.10;99.90;;;;;;5067909;28;19931;-91
2023/03/04 03:50:40;;;;;;;;;;;;;;;;;;;;;
2023/03/04 03:53:06;;;;;;;;;;;6.80;99.90;;;;;;5088421;28;19939;-90
2023/03/04 03:55:49;;;;;;;;;;;;;;;;;;;;;
2023/03/04 03:58:20;;;;;;;;;;;7.20;99.90;;;;;;5070763;28;19932;-91
2023/03/04 04:00:46;;;;;;;;;;;5.00;99.90;;;;;;5053635;28;19932;-90
2023/03/04 04:03:17;;;;;;;;;;;8.20;99.90;;;;;;5055926;28;19924;-90
2023/03/04 04:05:42;;;;;;;;;;;7.60;99.90;;;;;;5088175;28;19960;-90
2023/03/04 04:08:23;;;;;;;;;;;3.60;99.90;;;;;;5058702;28;19924;-90
2023/03/04 04:10:51;;;;;;;;;;;5.00;99.90;;;;;;5067392;28;19935;-91
2023/03/04 04:13:37;;;;;;;;;;;;;;;;;;;;;
2023/03/04 04:16:12;;;;;;;;;;;3.60;99.90;;;;;;5081671;28;19924;-92
2023/03/04 04:19:11;;;;;;;;;;;4.00;99.90;;;;;;5058654;28;19928;-90
2023/03/04 04:21:44;;;;;;;;;;;;;;;;;;;;;
2023/03/04 04:24:18;;;;;;;;;;;2.70;99.90;;;;;;5060312;28;19928;-90
2023/03/04 04:26:46;;;;;;;;;;;4.80;99.90;;;;;;5057742;28;20011;-90
2023/03/04 04:29:19;;;;;;;;;;;5.10;99.90;;;;;;5072838;28;19924;-90
2023/03/04 04:31:56;;;;;;;;;;;4.80;99.90;;;;;;5054115;28;19924;-91
2023/03/04 04:34:24;;;;;;;;;;;3.70;99.90;;;;;;5053968;28;19928;-91
2023/03/04 04:36:53;;;;;;;;;;;4.80;99.90;;;;;;5073481;28;19974;-90
2023/03/04 04:39:21;;;;;;;;;;;5.10;99.90;;;;;;5071592;28;19928;-90
2023/03/04 04:41:49;;;;;;;;;;;5.10;99.90;;;;;;5073252;28;19967;-90
2023/03/04 04:44:27;;;;;;;;;;;5.70;99.90;;;;;;5056130;28;19964;-90
2023/03/04 04:46:57;;;;;;;;;;;4.80;99.90;;;;;;5055709;28;19924;-91
2023/03/04 04:52:15;;;;;;;;;;;5.00;99.90;;;;;;5097165;28;19925;-90
2023/03/04 04:54:48;;;;;;;;;;;7.70;99.90;;;;;;5078840;28;19958;-90
2023/03/04 04:57:21;;;;;;;;;;;3.60;99.90;;;;;;5110087;28;19920;-92
2023/03/04 04:59:58;;;;;;;;;;;4.00;99.90;;;;;;5095991;28;19947;-91
2023/03/04 05:02:24;;;;;;;;;;;2.80;99.90;;;;;;5097092;28;19912;-91
2023/03/04 05:04:52;;;;;;;;;;;4.80;99.90;;;;;;5080233;28;19923;-90
2023/03/04 05:07:31;;;;;;;;;;;5.30;99.90;;;;;;5081231;28;19923;-91
2023/03/04 05:10:07;;;;;;;;;;;5.70;99.90;;;;;;5080185;28;19912;-92
2023/03/04 05:12:43;;;;;;;;;;;5.00;99.90;;;;;;5131679;28;19913;-90
2023/03/04 05:15:11;;;;;;;;;;;3.60;99.90;;;;;;5068688;28;19939;-91
2023/03/04 05:17:50;;;;;;;;;;;3.10;99.90;;;;;;5073217;28;20279;-91
2023/03/04 05:20:26;;;;;;;;;;;4.90;99.90;;;;;;5072322;28;19924;-89
2023/03/04 05:23:02;;;;;;;;;;;;;;;;;;;;;
2023/03/04 05:25:38;;;;;;;;;;;5.30;99.90;;;;;;5098366;28;19925;-90
2023/03/04 05:28:11;;;;;;;;;;;5.20;99.90;;;;;;5070686;28;19925;-90
2023/03/04 05:30:37;;;;;;;;;;;4.90;99.90;;;;;;5047553;28;20012;-90
2023/03/04 05:33:13;;;;;;;;;;;4.70;99.90;;;;;;5081441;28;19924;-90
2023/03/04 05:35:42;;;;;;;;;;;4.90;99.90;;;;;;5049924;28;19955;-90
2023/03/04 05:38:11;;;;;;;;;;;5.00;99.90;;;;;;5079446;28;19951;-90
2023/03/04 05:40:47;;;;;;;;;;;5.00;99.90;;;;;;5051765;28;20015;-91
2023/03/04 05:43:22;;;;;;;;;;;6.60;99.90;;;;;;5097112;28;19950;-90
2023/03/04 05:45:53;;;;;;;;;;;5.00;99.90;;;;;;5088060;28;19924;-90
2023/03/04 05:48:19;;;;;;;;;;;5.20;99.90;;;;;;5055634;28;19928;-90
2023/03/04 05:50:54;;;;;;;;;;;4.80;99.90;;;;;;5072651;28;20023;-90
2023/03/04 05:53:38;;;;;;;;;;;;;;;;;;;;;
2023/03/04 05:56:08;;;;;;;;;;;4.80;99.90;;;;;;5059984;28;19928;-90
2023/03/04 06:01:30;;;;;;;;;;;4.70;99.90;;;;;;5104539;28;20376;-90
2023/03/04 06:04:13;;;;;;;;;;;6.10;99.90;;;;;;5088835;28;19924;-90
2023/03/04 06:06:46;;;;;;;;;;;5.00;99.90;;;;;;5083618;28;19928;-90
2023/03/04 06:09:16;;;;;;;;;;;7.20;99.90;;;;;;5071454;28;19975;-90
2023/03/04 06:11:55;;;;;;;;;;;;;;;;;;;;;
2023/03/04 06:14:26;;;;;;;;;;;5.80;99.90;;;;;;5071972;28;19924;-90
2023/03/04 06:17:02;;;;;;;;;;;5.10;99.90;;;;;;5062133;28;19979;-90
2023/03/04 06:19:36;;;;;;;;;;;5.20;99.90;;;;;;5082691;28;19960;-90
2023/03/04 06:22:08;;;;;;;;;;;4.90;99.90;;;;;;5055007;28;19979;-90
2023/03/04 06:24:38;;;;;;;;;;;4.70;99.90;;;;;;5087929;28;19964;-91
2023/03/04 06:27:12;;;;;;;;;;;4.90;99.90;;;;;;5054591;28;19947;-90
2023/03/04 06:29:40;;;;;;;;;;;4.90;99.90;;;;;;5053492;28;20361;-91
2023/03/04 06:32:13;;;;;;;;;;;5.60;99.90;;;;;;5088230;28;19924;-90
2023/03/04 06:34:44;;;;;;;;;;;5.00;99.90;;;;;;5052165;28;19980;-90
2023/03/04 06:37:13;;;;;;;;;;;6.40;99.90;;;;;;5038248;28;20356;-91
2023/03/04 06:39:49;;;;;;;;;;;5.30;99.90;;;;;;5071010;28;20422;-91
2023/03/04 06:42:22;;;;;;;;;;;5.10;99.90;;;;;;5054370;28;20372;-90
2023/03/04 06:44:50;;;;;;;;;;;3.90;99.90;;;;;;5080299;28;19928;-91
2023/03/04 06:47:22;;;;;;;;;;;5.10;99.90;;;;;;5071646;28;19978;-90
2023/03/04 06:49:52;;;;;;;;;;;5.50;99.90;;;;;;5055452;28;19925;-90
2023/03/04 06:52:18;;;;;;;;;;;5.50;99.90;;;;;;5083853;28;19928;-90
2023/03/04 06:54:51;;;;;;;;;;;5.80;99.90;;;;;;5102221;28;20291;-91
2023/03/04 06:57:24;;;;;;;;;;;5.00;99.90;;;;;;5088794;28;19931;-90
2023/03/04 06:59:57;;;;;;;;;;;5.00;99.90;;;;;;5054652;28;19924;-91
2023/03/04 07:02:25;;;;;;;;;;;7.40;99.90;;;;;;5059345;28;20387;-90
2023/03/04 07:04:56;;;;;;;;;;;5.10;99.90;;;;;;5071667;28;19955;-90
2023/03/04 07:07:25;;;;;;;;;;;3.40;99.90;;;;;;5071813;28;19932;-90
2023/03/04 07:09:55;;;;;;;;;;;3.30;99.90;;;;;;5054923;28;19928;-91
2023/03/04 07:12:26;;;;;;;;;;;5.10;99.90;;;;;;5072029;28;19932;-90
2023/03/04 07:14:59;;;;;;;;;;;5.10;99.90;;;;;;5082616;28;20361;-91
2023/03/04 07:17:31;;;;;;;;;;;5.60;99.90;;;;;;5050838;28;19924;-89
2023/03/04 07:20:04;;;;;;;;;;;5.30;99.90;;;;;;5048694;28;19936;-88
2023/03/04 07:22:42;;;;;;;;;;;;;;;;;;;;;
2023/03/04 07:25:16;;;;;;;;;;;4.50;99.90;;;;;;5053544;28;19931;-93
2023/03/04 07:27:42;;;;;;;;;;;7.50;99.90;;;;;;5114534;22;19998;-93
2023/03/04 07:30:08;;;;;;;;;;;5.50;99.90;;;;;;5015505;28;19921;-93
2023/03/04 07:32:34;;;;;;;;;;;5.10;99.90;;;;;;5032523;28;19920;-95
2023/03/04 07:35:00;;;;;;;;;;;5.20;99.90;;;;;;5010697;28;19988;-94
2023/03/04 07:37:26;;;;;;;;;;;5.10;99.90;;;;;;5021712;28;19925;-93
2023/03/04 07:39:51;;;;;;;;;;;5.20;99.90;;;;;;5011495;28;19925;-93
2023/03/04 07:42:17;;;;;;;;;;;5.20;99.90;;;;;;5024980;28;20006;-93
2023/03/04 07:44:43;;;;;;;;;;;5.50;99.90;;;;;;5016855;28;19936;-95
2023/03/04 07:47:08;;;;;;;;;;;5.20;99.90;;;;;;5008964;28;20012;-93
2023/03/04 07:49:34;;;;;;;;;;;5.30;99.90;;;;;;5023866;28;20290;-93
2023/03/04 07:52:02;;;;;;;;;;;5.70;99.90;;;;;;4991091;28;19929;-92
2023/03/04 07:54:28;;;;;;;;;;;5.40;99.90;;;;;;5019983;28;19929;-93
2023/03/04 07:56:53;;;;;;;;;;;5.40;99.90;;;;;;4995010;28;19925;-92
2023/03/04 07:59:19;;;;;;;;;;;5.40;99.90;;;;;;5023846;28;19933;-93
2023/03/04 08:01:45;;;;;;;;;;;5.50;99.90;;;;;;5022728;28;19930;-93
2023/03/04 08:04:10;;;;;;;;;;;5.90;99.90;;;;;;5008627;28;19961;-93
2023/03/04 08:06:38;;;;;;;;;;;5.50;99.90;;;;;;5019133;28;19925;-93
2023/03/04 08:09:05;;;;;;;;;;;5.70;99.90;;;;;;5023747;28;19930;-95
2023/03/04 08:11:31;;;;;;;;;;;6.30;99.90;;;;;;5029081;28;19925;-95
2023/03/04 08:14:05;;;;;;;;;;;5.70;99.90;;;;;;5007490;28;19956;-95
2023/03/04 08:16:31;;;;;;;;;;;3.30;99.90;;;;;;5022826;28;19946;-94
2023/03/04 08:18:58;;;;;;;;;;;6.80;99.90;;;;;;5010770;28;19939;-92
2023/03/04 08:21:24;;;;;;;;;;;5.50;99.90;;;;;;5018337;28;19925;-94
2023/03/04 08:23:50;;;;;;;;;;;5.40;99.90;;;;;;5016800;28;19945;-93
2023/03/04 08:26:18;;;;;;;;;;;5.40;99.90;;;;;;5021149;28;19933;-95
2023/03/04 08:28:44;;;;;;;;;;;5.50;99.90;;;;;;5023606;28;19954;-93
2023/03/04 08:31:14;;;;;;;;;;;5.60;99.90;;;;;;5017240;28;20025;-96
2023/03/04 08:33:40;;;;;;;;;;;5.50;99.90;;;;;;5028115;28;19961;-93
2023/03/04 08:36:06;;;;;;;;;;;5.50;99.90;;;;;;4984637;28;19930;-93
2023/03/04 08:38:31;;;;;;;;;;;6.40;99.90;;;;;;5006334;28;19929;-94
2023/03/04 08:40:57;;;;;;;;;;;5.60;99.90;;;;;;5004858;28;20475;-95
2023/03/04 08:43:24;;;;;;;;;;;3.60;99.90;;;;;;5021483;28;19980;-94
2023/03/04 08:45:50;;;;;;;;;;;5.60;99.90;;;;;;5003441;28;19926;-93
2023/03/04 08:48:17;;;;;;;;;;;5.60;99.90;;;;;;4990454;28;19936;-93
2023/03/04 08:50:44;;;;;;;;;;;5.60;99.90;;;;;;5022290;28;19941;-94
2023/03/04 08:53:10;;;;;;;;;;;5.90;99.90;;;;;;5020702;28;19937;-94
2023/03/04 08:55:37;;;;;;;;;;;5.60;99.90;;;;;;5020519;28;19988;-93
2023/03/04 08:58:02;;;;;;;;;;;5.80;99.90;;;;;;5013124;28;20478;-94
2023/03/04 09:00:28;;;;;;;;;;;6.10;99.90;;;;;;5027887;28;19922;-93
2023/03/04 09:02:54;;;;;;;;;;;6.30;99.90;;;;;;5016056;28;19929;-95
2023/03/04 09:05:20;;;;;;;;;;;5.70;99.90;;;;;;5020674;28;19949;-93
2023/03/04 09:07:46;;;;;;;;;;;5.80;99.90;;;;;;4995115;28;19944;-92
2023/03/04 09:10:11;;;;;;;;;;;5.80;99.90;;;;;;5020390;28;19937;-93
2023/03/04 09:12:37;;;;;;;;;;;5.80;99.90;;;;;;5007512;28;19964;-94
2023/03/04 09:15:04;;;;;;;;;;;4.00;99.90;;;;;;5008233;28;19968;-93
2023/03/04 09:17:30;;;;;;;;;;;6.00;99.90;;;;;;5012255;28;19952;-93
2023/03/04 09:19:56;;;;;;;;;;;5.90;99.90;;;;;;5000029;28;19929;-93
2023/03/04 09:22:21;;;;;;;;;;;5.90;99.90;;;;;;5026828;28;20389;-92
2023/03/04 09:24:47;;;;;;;;;;;6.00;99.90;;;;;;5010998;28;19937;-93
2023/03/04 09:27:12;;;;;;;;;;;6.10;99.90;;;;;;5003859;28;19929;-94
2023/03/04 09:29:38;;;;;;;;;;;6.00;99.90;;;;;;5003044;28;19929;-95
2023/03/04 09:32:04;;;;;;;;;;;6.00;99.90;;;;;;5002903;28;19937;-92
2023/03/04 09:34:30;;;;;;;;;;;6.10;99.90;;;;;;5018941;28;20029;-93
2023/03/04 09:36:55;;;;;;;;;;;6.30;99.90;;;;;;5037481;28;19930;-94
2023/03/04 09:39:21;;;;;;;;;;;6.20;99.90;;;;;;5019720;28;19926;-95
2023/03/04 09:41:55;;;;;;;;;;;6.20;99.90;;;;;;5013267;28;19930;-94
2023/03/04 09:44:21;;;;;;;;;;;6.50;99.90;;;;;;5017849;28;19929;-93
2023/03/04 09:46:47;;;;;;;;;;;4.00;99.90;;;;;;5017036;28;19948;-95
2023/03/04 09:49:13;;;;;;;;;;;6.80;99.90;;;;;;5022851;28;19929;-94
2023/03/04 09:51:47;;;;;;;;;;;3.70;99.90;;;;;;5002777;28;19936;-95
2023/03/04 09:54:17;;;;;;;;;;;6.30;99.90;;;;;;5014973;28;19949;-94
2023/03/04 09:56:43;;;;;;;;;;;6.20;99.90;;;;;;5019235;28;19926;-96
2023/03/04 09:59:11;;;;;;;;;;;6.60;99.90;;;;;;5025844;28;19981;-95
2023/03/04 10:01:52;;;;;;;;;;;4.90;99.90;;;;;;5036349;28;19971;-96
2023/03/04 10:04:29;;;;;;;;;;;6.90;99.90;;;;;;5014235;28;19926;-95
2023/03/04 10:06:55;;;;;;;;;;;6.50;99.90;;;;;;5005474;28;19926;-95
2023/03/04 10:09:47;;;;;;;;;;;6.50;99.90;;;;;;5023180;28;19925;-95
2023/03/04 10:12:14;;;;;;;;;;;6.70;99.90;;;;;;4982469;28;19952;-95
2023/03/04 10:15:09;;;;;;;;;;;6.70;99.90;;;;;;5001656;28;19926;-95
2023/03/04 10:17:37;;;;;;;;;;;6.80;99.90;;;;;;5001632;28;20020;-96
2023/03/04 10:20:11;;;;;;;;;;;7.90;99.90;;;;;;5019487;28;20258;-93
2023/03/04 10:22:47;;;;;;;;;;;6.70;99.90;;;;;;5020457;28;19926;-94
2023/03/04 10:25:27;;;;;;;;;;;6.60;99.90;;;;;;5016618;28;19926;-95
2023/03/04 10:27:56;;;;;;;;;;;6.40;99.90;;;;;;5020474;28;19951;-95
2023/03/04 10:30:41;;;;;;;;;;;7.90;99.90;;;;;;5026161;28;20000;-96
2023/03/04 10:33:14;;;;;;;;;;;5.50;99.90;;;;;;5033260;28;19928;-95
2023/03/04 10:35:42;;;;;;;;;;;6.70;99.90;;;;;;5016461;28;19961;-95
2023/03/04 10:38:08;;;;;;;;;;;6.60;99.90;;;;;;5024604;28;19929;-95
2023/03/04 10:40:38;;;;;;;;;;;7.00;99.90;;;;;;5013627;28;19930;-96
2023/03/04 10:43:07;;;;;;;;;;;6.70;99.90;;;;;;5026900;28;19971;-95
2023/03/04 10:45:37;;;;;;;;;;;7.20;99.90;;;;;;5002478;28;19984;-94
2023/03/04 10:48:06;;;;;;;;;;;6.70;99.90;;;;;;5007726;28;19960;-95
2023/03/04 10:50:32;;;;;;;;;;;8.10;99.90;;;;;;4999496;28;19937;-95
2023/03/04 10:52:57;;;;;;;;;;;4.90;99.90;;;;;;5021833;28;19933;-96
2023/03/04 10:55:23;;;;;;;;;;;6.80;99.90;;;;;;5021282;28;19952;-95
2023/03/04 10:57:56;;;;;;;;;;;9.60;99.90;;;;;;5024595;28;19930;-95
2023/03/04 11:00:27;;;;;;;;;;;7.10;99.90;;;;;;5020004;28;19959;-94
2023/03/04 11:03:12;;;;;;;;;;;6.90;99.90;;;;;;5013955;28;19985;-95
2023/03/04 11:05:37;;;;;;;;;;;6.90;99.90;;;;;;5011147;28;19933;-95
2023/03/04 11:08:05;;;;;;;;;;;5.30;99.90;;;;;;5007928;28;19933;-95
2023/03/04 11:10:42;;;;;;;;;;;7.10;99.90;;;;;;5018893;28;19926;-94
2023/03/04 11:13:27;;;;;;;;;;;7.00;99.90;;;;;;5029256;28;19929;-95
2023/03/04 11:15:58;;;;;;;;;;;7.20;99.90;;;;;;5016626;28;19925;-94
2023/03/04 11:18:39;;;;;;;;;;;7.20;99.90;;;;;;5024969;28;19964;-96
2023/03/04 11:21:05;;;;;;;;;;;7.50;99.90;;;;;;5027818;28;20016;-96
2023/03/04 11:23:54;;;;;;;;;;;7.30;99.90;;;;;;5017752;28;19933;-95
2023/03/04 11:26:27;;;;;;;;;;;7.80;99.90;;;;;;5022962;28;19976;-95
2023/03/04 11:29:13;;;;;;;;;;;7.10;99.90;;;;;;5046239;28;20012;-96
2023/03/04 11:31:42;;;;;;;;;;;9.30;99.90;;;;;;5022398;28;19964;-95
2023/03/04 11:34:12;;;;;;;;;;;7.70;99.90;;;;;;5011805;28;19936;-95
2023/03/04 11:36:41;;;;;;;;;;;7.40;99.90;;;;;;5025229;28;19925;-96
2023/03/04 11:39:18;;;;;;;;;;;7.30;99.90;;;;;;5029604;28;20004;-95
2023/03/04 11:41:49;;;;;;;;;;;7.30;99.90;;;;;;5023647;28;19926;-97
2023/03/04 11:44:15;;;;;;;;;;;9.00;99.90;;;;;;5020273;28;19952;-95
2023/03/04 11:46:44;;;;;;;;;;;7.40;99.90;;;;;;5020835;28;19988;-96
2023/03/04 11:49:28;;;;;;;;;;;7.20;99.90;;;;;;5027553;28;19920;-96
2023/03/04 11:52:00;;;;;;;;;;;9.40;99.90;;;;;;5027233;28;19925;-95
2023/03/04 11:54:44;;;;;;;;;;;6.90;99.90;;;;;;5025937;28;20262;-94
2023/03/04 11:57:29;;;;;;;;;;;7.10;99.90;;;;;;5023945;28;19932;-96
2023/03/04 12:00:13;;;;;;;;;;;7.20;99.90;;;;;;5027700;28;19936;-95
2023/03/04 12:02:59;;;;;;;;;;;7.30;99.90;;;;;;5036863;28;19921;-96
2023/03/04 12:05:26;;;;;;;;;;;7.30;99.90;;;;;;4982523;28;19932;-94
2023/03/04 12:08:13;;;;;;;;;;;7.30;99.90;;;;;;5054101;23;20667;-90
2023/03/04 12:10:48;;;;;;;;;;;8.10;99.90;;;;;;5054726;28;19970;-89
2023/03/04 12:13:35;;;;;;;;;;;6.60;99.90;;;;;;5072439;28;20016;-90
2023/03/04 12:16:19;;;;;;;;;;;6.40;99.90;;;;;;5038773;28;19925;-89
2023/03/04 12:19:03;;;;;;;;;;;7.50;99.90;;;;;;5070061;28;20326;-90
2023/03/04 12:21:50;;;;;;;;;;;8.20;99.90;;;;;;5035730;28;19944;-90
2023/03/04 12:24:25;;;;;;;;;;;7.80;99.90;;;;;;5070658;28;20012;-90
2023/03/04 12:27:01;;;;;;;;;;;7.80;99.90;;;;;;5054471;28;19929;-90
2023/03/04 12:29:30;;;;;;;;;;;10.00;99.90;;;;;;5050276;28;19929;-91
2023/03/04 12:32:09;;;;;;;;;;;9.00;99.90;;;;;;5067732;28;20262;-90
2023/03/04 12:34:47;;;;;;;;;;;7.60;99.90;;;;;;5037737;28;19932;-89
2023/03/04 12:37:24;;;;;;;;;;;7.50;99.90;;;;;;5047617;28;19935;-89
2023/03/04 12:40:08;;;;;;;;;;;4.80;99.90;;;;;;5063497;28;19943;-90
2023/03/04 12:42:37;;;;;;;;;;;7.30;99.90;;;;;;5071283;28;19998;-90
2023/03/04 12:45:19;;;;;;;;;;;7.50;99.90;;;;;;5062526;28;20012;-89
2023/03/04 12:47:55;;;;;;;;;;;7.40;99.90;;;;;;5034601;28;19995;-91
2023/03/04 12:50:29;;;;;;;;;;;7.60;99.90;;;;;;5066210;28;19986;-89
2023/03/04 12:53:12;;;;;;;;;;;7.30;99.90;;;;;;5053495;28;20385;-89
2023/03/04 12:55:42;;;;;;;;;;;7.10;99.90;;;;;;5070711;28;19929;-90
2023/03/04 12:58:19;;;;;;;;;;;7.50;99.90;;;;;;5070389;28;20323;-93
2023/03/04 13:01:14;;;;;;;;;;;7.80;99.90;;;;;;5039662;28;19924;-91
2023/03/04 13:03:55;;;;;;;;;;;8.40;99.90;;;;;;5032956;28;19928;-92
2023/03/04 13:06:31;;;;;;;;;;;8.30;99.90;;;;;;5046994;28;20374;-90
2023/03/04 13:09:06;;;;;;;;;;;8.10;99.90;;;;;;5071315;28;20371;-90
2023/03/04 13:11:45;;;;;;;;;;;10.80;99.90;;;;;;5069825;28;19997;-90
2023/03/04 13:14:16;;;;;;;;;;;7.30;99.90;;;;;;5053777;28;19925;-91
2023/03/04 13:16:57;;;;;;;;;;;7.50;99.90;;;;;;5052985;28;20063;-90
2023/03/04 13:19:44;;;;;;;;;;;7.30;99.90;;;;;;5053720;28;19925;-89
2023/03/04 13:22:34;;;;;;;;;;;7.30;99.90;;;;;;5053832;28;19990;-90
2023/03/04 13:25:18;;;;;;;;;;;7.30;99.90;;;;;;5067099;28;20424;-91
2023/03/04 13:28:06;;;;;;;;;;;7.10;99.90;;;;;;5053842;28;19925;-91
2023/03/04 13:30:44;;;;;;;;;;;;;;;;;;;;;
2023/03/04 13:33:12;;;;;;;;;;;6.00;99.90;;;;;;5080723;28;19929;-91
2023/03/04 13:35:50;;;;;;;;;;;7.90;99.90;;;;;;5094233;28;19932;-91
2023/03/04 13:38:21;;;;;;;;;;;7.30;99.90;;;;;;5064268;28;19926;-91
2023/03/04 13:41:06;;;;;;;;;;;7.50;99.90;;;;;;5082785;28;19929;-90
2023/03/04 13:43:38;;;;;;;;;;;7.20;99.90;;;;;;5088855;28;19925;-90
2023/03/04 13:46:29;;;;;;;;;;;;;;;;;;;;;
2023/03/04 13:48:59;;;;;;;;;;;7.30;99.90;;;;;;5076965;28;19988;-91
2023/03/04 13:51:42;;;;;;;;;;;6.00;99.90;;;;;;5093963;28;19963;-90
2023/03/04 13:54:16;;;;;;;;;;;8.00;99.90;;;;;;5110933;28;19912;-91
2023/03/04 13:56:46;;;;;;;;;;;7.50;99.90;;;;;;5101050;28;19925;-90
2023/03/04 14:02:07;;;;;;;;;;;7.50;99.90;;;;;;5034507;28;19925;-90
2023/03/04 14:04:44;;;;;;;;;;;7.00;99.90;;;;;;5069052;28;19978;-91
2023/03/04 14:07:30;;;;;;;;;;;7.40;99.90;;;;;;5072995;28;19931;-91
2023/03/04 14:09:58;;;;;;;;;;;7.40;99.90;;;;;;5078677;28;19990;-91
2023/03/04 14:12:24;;;;;;;;;;;7.30;99.90;;;;;;5036451;28;19947;-90
2023/03/04 14:14:55;;;;;;;;;;;7.50;99.90;;;;;;5085310;28;20011;-90
2023/03/04 14:17:36;;;;;;;;;;;7.20;99.90;;;;;;5052742;28;19932;-90
2023/03/04 14:20:05;;;;;;;;;;;7.30;99.90;;;;;;5058816;28;20380;-90
2023/03/04 14:22:40;;;;;;;;;;;9.70;99.90;;;;;;5032521;28;19943;-90
2023/03/04 14:25:29;;;;;;;;;;;7.00;99.90;;;;;;5066265;28;20066;-91
2023/03/04 14:28:06;;;;;;;;;;;5.90;99.90;;;;;;5070702;28;19932;-92
2023/03/04 14:30:38;;;;;;;;;;;7.40;99.90;;;;;;5073002;28;19968;-90
2023/03/04 14:33:07;;;;;;;;;;;7.20;99.90;;;;;;5067168;28;19925;-90
2023/03/04 14:35:37;;;;;;;;;;;7.00;99.90;;;;;;5070785;28;19925;-89
2023/03/04 14:38:14;;;;;;;;;;;7.20;99.90;;;;;;5057441;28;19925;-91
2023/03/04 14:40:50;;;;;;;;;;;6.80;99.90;;;;;;5035280;28;19931;-90
2023/03/04 14:43:22;;;;;;;;;;;5.30;99.90;;;;;;5033845;28;20274;-90
2023/03/04 14:45:52;;;;;;;;;;;6.40;99.90;;;;;;5018152;28;19932;-90
2023/03/04 14:48:27;;;;;;;;;;;7.10;99.90;;;;;;5036214;28;19964;-90
2023/03/04 14:51:06;;;;;;;;;;;4.70;99.90;;;;;;5035464;28;19971;-90
2023/03/04 14:53:32;;;;;;;;;;;6.50;99.90;;;;;;5026994;28;19931;-93
2023/03/04 14:56:06;;;;;;;;;;;6.80;99.90;;;;;;5033841;28;20380;-92
2023/03/04 14:58:47;;;;;;;;;;;;;;;;;;;;;
2023/03/04 15:01:18;;;;;;;;;;;6.80;99.90;;;;;;5051382;28;19931;-91
2023/03/04 15:03:58;;;;;;;;;;;6.10;99.90;;;;;;5036585;28;20028;-88
2023/03/04 15:06:33;;;;;;;;;;;6.40;99.90;;;;;;5027350;28;20269;-87
2023/03/04 15:09:03;;;;;;;;;;;6.20;99.90;;;;;;5080294;28;20353;-88
2023/03/04 15:11:59;;;;;;;;;;;6.10;99.90;;;;;;5076539;28;20319;-89
2023/03/04 15:14:44;;;;;;;;;;;6.20;99.90;;;;;;5055518;28;19951;-89
2023/03/04 15:17:31;;;;;;;;;;;6.60;99.90;;;;;;5085735;28;19925;-88
2023/03/04 15:20:06;;;;;;;;;;;6.10;99.90;;;;;;5051944;28;19925;-88
2023/03/04 15:22:38;;;;;;;;;;;6.10;99.90;;;;;;5068597;28;19925;-88
2023/03/04 15:25:25;;;;;;;;;;;3.70;99.90;;;;;;5083420;28;20377;-88
2023/03/04 15:27:53;;;;;;;;;;;6.00;99.90;;;;;;5068864;28;19932;-91
2023/03/04 15:30:20;;;;;;;;;;;6.20;99.90;;;;;;5049407;28;20293;-89
2023/03/04 15:33:03;;;;;;;;;;;4.20;99.90;;;;;;5069017;28;19932;-89
2023/03/04 15:35:32;;;;;;;;;;;5.90;99.90;;;;;;5083404;28;19925;-89